createdAt,value
2022-11-10T00:00:46.349Z,11.60
2022-11-10T00:05:08.508Z,10.17
2022-11-10T00:09:27.025Z,16.97
2022-11-10T00:13:57.764Z,16.90
2022-11-10T00:18:16.756Z,16.87
2022-11-10T00:22:39.914Z,13.40
2022-11-10T00:26:59.527Z,13.20
2022-11-10T00:31:18.139Z,10.60
2022-11-10T00:35:37.614Z,12.83
2022-11-10T00:39:58.839Z,12.00
2022-11-10T00:44:17.312Z,14.90
2022-11-10T00:48:35.729Z,7.90
2022-11-10T00:52:54.219Z,14.67
2022-11-10T00:57:16.240Z,9.20
2022-11-10T01:01:35.022Z,10.27
2022-11-10T01:05:53.660Z,7.40
2022-11-10T01:10:12.539Z,7.20
2022-11-10T01:14:33.577Z,8.70
2022-11-10T01:18:53.621Z,8.53
2022-11-10T01:23:13.751Z,8.77
2022-11-10T01:27:32.724Z,12.57
2022-11-10T01:31:54.216Z,9.70
2022-11-10T01:36:14.970Z,11.87
2022-11-10T01:40:33.479Z,10.93
2022-11-10T01:45:43.065Z,9.33
2022-11-10T01:50:04.896Z,8.03
2022-11-10T01:54:29.283Z,6.30
2022-11-10T01:58:56.597Z,8.87
2022-11-10T02:03:24.510Z,9.70
2022-11-10T02:07:46.881Z,9.40
2022-11-10T02:12:05.858Z,8.77
2022-11-10T02:16:25.291Z,6.47
2022-11-10T02:20:49.956Z,9.57
2022-11-10T02:25:10.466Z,8.23
2022-11-10T02:29:29.477Z,7.47
2022-11-10T02:33:48.248Z,9.57
2022-11-10T02:38:09.687Z,8.93
2022-11-10T02:42:28.571Z,6.20
2022-11-10T02:46:47.460Z,7.50
2022-11-10T02:51:06.507Z,7.87
2022-11-10T02:55:28.072Z,8.60
2022-11-10T02:59:46.752Z,8.47
2022-11-10T03:04:05.919Z,11.37
2022-11-10T03:08:24.822Z,9.23
2022-11-10T03:12:45.888Z,8.53
2022-11-10T03:17:04.579Z,8.10
2022-11-10T03:21:23.540Z,7.97
2022-11-10T03:25:42.340Z,7.87
2022-11-10T03:30:03.517Z,9.47
2022-11-10T03:34:22.316Z,10.43
2022-11-10T03:38:41.038Z,11.90
2022-11-10T03:42:59.536Z,8.20
2022-11-10T03:47:21.162Z,12.00
2022-11-10T03:51:40.117Z,10.37
2022-11-10T03:55:58.561Z,10.67
2022-11-10T04:00:18.832Z,12.67
2022-11-10T04:04:52.508Z,16.57
2022-11-10T04:09:11.936Z,12.77
2022-11-10T04:13:43.148Z,9.13
2022-11-10T04:18:21.131Z,13.47
2022-11-10T04:22:55.235Z,13.73
2022-11-10T04:27:14.039Z,9.73
2022-11-10T04:31:37.495Z,15.10
2022-11-10T04:35:55.984Z,13.67
2022-11-10T04:40:18.121Z,12.73
2022-11-10T04:44:36.515Z,14.23
2022-11-10T04:48:57.680Z,15.87
2022-11-10T04:53:16.360Z,15.13
2022-11-10T04:57:37.691Z,9.70
2022-11-10T05:01:56.280Z,15.30
2022-11-10T05:06:15.149Z,13.40
2022-11-10T05:10:34.431Z,12.87
2022-11-10T05:14:56.120Z,12.00
2022-11-10T05:19:15.026Z,16.90
2022-11-10T05:23:44.162Z,14.50
2022-11-10T05:28:03.485Z,11.50
2022-11-10T05:32:24.741Z,12.23
2022-11-10T05:36:43.173Z,19.50
2022-11-10T05:41:02.107Z,17.07
2022-11-10T05:45:21.599Z,17.23
2022-11-10T05:49:43.015Z,18.13
2022-11-10T05:54:01.960Z,21.90
2022-11-10T05:58:20.564Z,25.67
2022-11-10T06:02:39.893Z,20.33
2022-11-10T06:07:01.322Z,21.63
2022-11-10T06:11:20.617Z,17.77
2022-11-10T06:15:40.189Z,13.50
2022-11-10T06:19:59.097Z,19.53
2022-11-10T06:24:20.361Z,17.47
2022-11-10T06:28:39.383Z,23.30
2022-11-10T06:32:58.389Z,20.00
2022-11-10T06:37:17.322Z,16.77
2022-11-10T06:41:38.563Z,20.80
2022-11-10T06:45:57.091Z,22.33
2022-11-10T06:50:17.170Z,18.67
2022-11-10T06:54:35.961Z,13.33
2022-11-10T06:58:57.043Z,17.17
2022-11-10T07:03:18.281Z,15.97
2022-11-10T07:07:37.264Z,18.37
2022-11-10T07:11:57.428Z,17.23
2022-11-10T07:16:24.209Z,15.47
2022-11-10T07:20:44.107Z,10.97
2022-11-10T07:25:02.862Z,13.70
2022-11-10T07:29:21.437Z,12.20
2022-11-10T07:33:44.144Z,15.87
2022-11-10T07:38:07.408Z,23.03
2022-11-10T07:42:26.167Z,26.17
2022-11-10T07:46:44.728Z,30.63
2022-11-10T07:51:05.903Z,22.57
2022-11-10T07:55:24.420Z,16.97
2022-11-10T07:59:42.915Z,14.20
2022-11-10T08:04:01.563Z,10.97
2022-11-10T08:08:23.067Z,11.77
2022-11-10T08:12:41.740Z,12.50
2022-11-10T08:17:00.352Z,10.03
2022-11-10T08:21:18.928Z,8.93
2022-11-10T08:25:41.978Z,13.03
2022-11-10T08:30:00.834Z,10.40
2022-11-10T08:34:19.293Z,8.80
2022-11-10T08:38:37.982Z,9.77
2022-11-10T08:43:07.451Z,12.13
2022-11-10T08:47:26.267Z,11.23
2022-11-10T08:51:45.038Z,7.77
2022-11-10T08:56:03.837Z,9.90
2022-11-10T09:00:25.335Z,6.07
2022-11-10T09:04:44.825Z,9.53
2022-11-10T09:09:03.837Z,6.57
2022-11-10T09:13:29.075Z,7.73
2022-11-10T09:17:51.092Z,8.17
2022-11-10T09:22:09.798Z,5.80
2022-11-10T09:26:28.683Z,11.10
2022-11-10T09:30:50.380Z,11.40
2022-11-10T09:35:13.283Z,12.73
2022-11-10T09:39:32.397Z,12.00
2022-11-10T09:44:04.764Z,7.53
2022-11-10T09:48:30.485Z,7.40
2022-11-10T09:52:55.438Z,10.57
2022-11-10T09:57:18.759Z,8.00
2022-11-10T10:01:48.122Z,13.00
2022-11-10T10:06:13.754Z,9.57
2022-11-10T10:10:42.515Z,12.10
2022-11-10T10:15:18.460Z,10.10
2022-11-10T10:19:49.926Z,11.90
2022-11-10T10:24:21.538Z,10.37
2022-11-10T10:28:49.397Z,10.27
2022-11-10T10:33:19.843Z,7.03
2022-11-10T10:37:48.826Z,7.73
2022-11-10T10:42:18.971Z,14.37
2022-11-10T10:46:48.952Z,13.67
2022-11-10T10:51:08.221Z,9.83
2022-11-10T10:55:32.963Z,11.95
2022-11-10T10:59:52.241Z,9.20
2022-11-10T11:04:36.548Z,9.27
2022-11-10T11:09:04.499Z,11.18
2022-11-10T11:13:28.039Z,10.30
2022-11-10T11:17:58.675Z,8.87
2022-11-10T11:22:49.756Z,8.48
2022-11-10T11:27:21.683Z,8.70
2022-11-10T11:31:53.687Z,10.07
2022-11-10T11:36:30.791Z,11.52
2022-11-10T11:41:00.972Z,9.98
2022-11-10T11:45:30.538Z,12.65
2022-11-10T11:50:15.634Z,8.75
2022-11-10T11:54:55.057Z,6.68
2022-11-10T11:59:51.594Z,9.77
2022-11-10T12:04:47.649Z,6.93
2022-11-10T12:09:22.520Z,7.28
2022-11-10T12:13:56.215Z,7.55
2022-11-10T12:18:32.388Z,7.32
2022-11-10T12:23:05.883Z,8.20
2022-11-10T12:27:33.330Z,4.60
2022-11-10T12:31:58.696Z,4.95
2022-11-10T12:36:24.933Z,5.63
2022-11-10T12:40:50.070Z,5.97
2022-11-10T12:45:19.980Z,7.35
2022-11-10T12:49:41.846Z,5.60
2022-11-10T12:54:03.544Z,6.43
2022-11-10T12:58:23.057Z,7.63
2022-11-10T13:02:46.323Z,6.32
2022-11-10T13:07:13.199Z,6.43
2022-11-10T13:11:38.040Z,4.75
2022-11-10T13:15:59.992Z,5.85
2022-11-10T13:20:53.352Z,8.32
2022-11-10T13:25:53.578Z,6.28
2022-11-10T13:30:43.669Z,8.70
2022-11-10T13:35:51.145Z,6.30
2022-11-10T13:40:41.175Z,5.45
2022-11-10T13:45:37.004Z,10.30
2022-11-10T13:50:10.677Z,7.03
2022-11-10T13:55:16.885Z,5.63
2022-11-10T13:59:48.991Z,5.57
2022-11-10T14:04:10.453Z,6.00
2022-11-10T14:08:38.589Z,8.43
2022-11-10T14:13:07.318Z,9.27
2022-11-10T14:17:31.164Z,7.07
2022-11-10T14:21:58.550Z,6.57
2022-11-10T14:26:27.280Z,4.60
2022-11-10T14:30:55.088Z,6.65
2022-11-10T14:35:24.396Z,7.43
2022-11-10T14:39:45.866Z,7.85
2022-11-10T14:44:08.579Z,5.25
2022-11-10T14:48:30.343Z,11.02
2022-11-10T14:52:54.431Z,7.53
2022-11-10T14:57:21.767Z,5.38
2022-11-10T15:01:45.019Z,6.53
2022-11-10T15:06:06.431Z,6.00
2022-11-10T15:10:29.520Z,11.70
2022-11-10T15:15:00.950Z,8.63
2022-11-10T15:19:30.872Z,8.30
2022-11-10T15:23:59.632Z,8.57
2022-11-10T15:28:30.069Z,9.35
2022-11-10T15:32:52.326Z,10.23
2022-11-10T15:37:30.868Z,12.15
2022-11-10T15:41:52.904Z,17.30
2022-11-10T15:46:18.811Z,17.07
2022-11-10T15:50:40.727Z,15.97
2022-11-10T15:55:00.395Z,19.03
2022-11-10T15:59:19.281Z,22.43
2022-11-10T16:03:38.230Z,18.40
2022-11-10T16:07:59.976Z,15.63
2022-11-10T16:12:23.583Z,16.07
2022-11-10T16:16:44.732Z,13.27
2022-11-10T16:21:03.367Z,11.70
2022-11-10T16:25:27.757Z,17.27
2022-11-10T16:29:50.008Z,15.40
2022-11-10T16:34:08.843Z,16.37
2022-11-10T16:38:32.388Z,19.67
2022-11-10T16:42:54.172Z,14.50
2022-11-10T16:47:21.809Z,18.90
2022-11-10T16:51:48.784Z,18.33
2022-11-10T16:56:08.572Z,20.30
2022-11-10T17:00:30.904Z,21.27
2022-11-10T17:04:49.960Z,21.80
2022-11-10T17:09:17.285Z,22.70
2022-11-10T17:13:35.846Z,20.03
2022-11-10T17:18:03.470Z,16.47
2022-11-10T17:22:25.490Z,18.53
2022-11-10T17:26:44.962Z,13.43
2022-11-10T17:31:04.152Z,17.00
2022-11-10T17:35:26.863Z,23.10
2022-11-10T17:39:45.562Z,31.43
2022-11-10T17:44:04.326Z,22.07
2022-11-10T17:48:22.996Z,30.47
2022-11-10T17:52:44.931Z,31.13
2022-11-10T17:57:04.728Z,34.77
2022-11-10T18:01:24.054Z,42.27
2022-11-10T18:05:45.752Z,44.83
2022-11-10T18:10:08.559Z,46.20
2022-11-10T18:14:27.251Z,42.57
2022-11-10T18:18:46.070Z,35.30
2022-11-10T18:23:04.612Z,39.90
2022-11-10T18:27:27.230Z,34.03
2022-11-10T18:31:46.054Z,35.07
2022-11-10T18:36:05.467Z,39.07
2022-11-10T18:40:24.373Z,36.27
2022-11-10T18:44:45.893Z,35.77
2022-11-10T18:49:04.663Z,39.70
2022-11-10T18:53:23.509Z,36.67
2022-11-10T18:57:42.737Z,32.87
2022-11-10T19:02:03.931Z,61.67
2022-11-10T19:06:23.232Z,47.60
2022-11-10T19:10:45.224Z,38.97
2022-11-10T19:15:04.018Z,44.27
2022-11-10T19:19:25.508Z,40.70
2022-11-10T19:23:44.537Z,44.47
2022-11-10T19:28:04.916Z,45.07
2022-11-10T19:32:24.962Z,47.10
2022-11-10T19:36:46.519Z,45.30
2022-11-10T19:41:10.004Z,44.60
2022-11-10T19:45:28.519Z,44.50
2022-11-10T19:49:46.872Z,42.40
2022-11-10T19:54:09.086Z,42.97
2022-11-10T19:58:28.088Z,38.93
2022-11-10T20:02:46.898Z,40.47
2022-11-10T20:07:18.216Z,36.53
2022-11-10T20:11:39.584Z,34.20
2022-11-10T20:15:58.129Z,36.23
2022-11-10T20:20:17.530Z,37.43
2022-11-10T20:24:36.779Z,38.80
2022-11-10T20:28:58.025Z,40.43
2022-11-10T20:33:16.545Z,37.50
2022-11-10T20:37:36.380Z,42.00
2022-11-10T20:41:55.108Z,32.67
2022-11-10T20:50:59.716Z,38.77
2022-11-10T20:55:26.051Z,46.80
2022-11-10T20:59:59.200Z,48.43
2022-11-10T21:04:25.602Z,45.13
2022-11-10T21:08:45.324Z,39.50
2022-11-10T21:13:04.482Z,40.93
2022-11-10T21:17:23.774Z,38.00
2022-11-10T21:21:45.648Z,37.30
2022-11-10T21:26:04.648Z,53.73
2022-11-10T21:30:25.625Z,54.13
2022-11-10T21:34:44.418Z,54.10
2022-11-10T21:39:05.666Z,44.73
2022-11-10T21:43:24.532Z,37.10
2022-11-10T21:47:43.721Z,33.73
2022-11-10T21:52:02.444Z,36.63
2022-11-10T21:56:23.589Z,42.80
2022-11-10T22:00:42.174Z,46.00
2022-11-10T22:05:00.990Z,44.20
2022-11-10T22:09:40.036Z,46.37
2022-11-10T22:14:14.019Z,109.27
2022-11-10T22:18:42.221Z,128.17
2022-11-10T22:23:00.736Z,93.77
2022-11-10T22:27:19.260Z,35.23
2022-11-10T22:31:40.585Z,15.97
2022-11-10T22:36:00.482Z,18.83
2022-11-10T22:40:37.458Z,26.07
2022-11-10T22:44:56.294Z,44.47
2022-11-10T22:49:19.662Z,44.10
2022-11-10T22:53:40.378Z,43.97
2022-11-10T22:57:59.153Z,30.57
2022-11-10T23:02:18.357Z,34.93
2022-11-10T23:06:39.685Z,73.17
2022-11-10T23:11:03.432Z,47.97
2022-11-10T23:15:23.167Z,53.87
2022-11-10T23:19:41.625Z,51.07
2022-11-10T23:24:02.864Z,23.17
2022-11-10T23:28:21.582Z,26.50
2022-11-10T23:32:40.246Z,26.97
2022-11-10T23:36:58.789Z,38.73
2022-11-10T23:41:23.643Z,41.77
2022-11-10T23:46:05.761Z,35.47
2022-11-10T23:50:22.912Z,152.43
2022-11-10T23:54:41.438Z,21.03
2022-11-10T23:59:02.677Z,50.30
